createdAt,value
2022-10-09T00:01:13.101Z,10.40
2022-10-09T00:03:59.731Z,10.40
2022-10-09T00:06:44.970Z,10.40
2022-10-09T00:09:58.478Z,10.40
2022-10-09T00:12:43.912Z,10.40
2022-10-09T00:15:29.427Z,10.30
2022-10-09T00:18:16.723Z,10.30
2022-10-09T00:21:02.701Z,10.30
2022-10-09T00:23:48.518Z,10.30
2022-10-09T00:26:33.936Z,10.30
2022-10-09T00:29:19.495Z,10.30
2022-10-09T00:32:04.684Z,10.30
2022-10-09T00:34:51.206Z,10.40
2022-10-09T00:37:39.195Z,10.40
2022-10-09T00:40:24.626Z,10.40
2022-10-09T00:43:16.539Z,10.40
2022-10-09T00:46:02.588Z,10.30
2022-10-09T00:49:02.939Z,10.30
2022-10-09T00:51:51.355Z,10.30
2022-10-09T00:54:38.960Z,10.30
2022-10-09T00:57:25.279Z,10.20
2022-10-09T01:00:13.896Z,10.20
2022-10-09T01:02:59.265Z,10.20
2022-10-09T01:06:08.677Z,10.20
2022-10-09T01:09:12.315Z,10.20
2022-10-09T01:12:33.858Z,10.20
2022-10-09T01:15:33.497Z,10.20
2022-10-09T01:18:34.971Z,10.20
2022-10-09T01:21:40.278Z,10.20
2022-10-09T01:24:46.350Z,10.20
2022-10-09T01:27:32.848Z,10.20
2022-10-09T01:30:20.553Z,10.10
2022-10-09T01:33:06.734Z,10.10
2022-10-09T01:35:53.377Z,10.10
2022-10-09T01:38:40.236Z,10.10
2022-10-09T01:41:26.448Z,10.10
2022-10-09T01:44:20.917Z,10.10
2022-10-09T01:47:06.938Z,10.10
2022-10-09T01:50:14.342Z,10.10
2022-10-09T01:53:03.839Z,10.10
2022-10-09T01:56:11.486Z,10.10
2022-10-09T01:58:59.242Z,10.00
2022-10-09T02:01:47.922Z,10.00
2022-10-09T02:04:35.327Z,9.90
2022-10-09T02:07:23.747Z,9.90
2022-10-09T02:10:12.735Z,9.90
2022-10-09T02:13:01.279Z,9.80
2022-10-09T02:16:15.071Z,9.80
2022-10-09T02:19:25.346Z,9.80
2022-10-09T02:22:18.600Z,9.80
2022-10-09T02:25:06.411Z,9.70
2022-10-09T02:27:51.946Z,9.70
2022-10-09T02:31:01.569Z,9.70
2022-10-09T02:33:54.089Z,9.70
2022-10-09T02:36:40.540Z,9.70
2022-10-09T02:39:26.021Z,9.70
2022-10-09T02:42:11.833Z,9.70
2022-10-09T02:44:57.517Z,9.70
2022-10-09T02:47:42.771Z,9.70
2022-10-09T02:50:28.383Z,9.70
2022-10-09T02:53:13.522Z,9.70
2022-10-09T02:55:59.113Z,9.60
2022-10-09T02:58:44.451Z,9.60
2022-10-09T03:01:29.797Z,9.60
2022-10-09T03:04:15.333Z,9.60
2022-10-09T03:07:00.576Z,9.50
2022-10-09T03:09:46.233Z,9.50
2022-10-09T03:12:31.402Z,9.50
2022-10-09T03:15:19.631Z,9.50
2022-10-09T03:18:05.328Z,9.40
2022-10-09T03:20:53.325Z,9.40
2022-10-09T03:23:38.775Z,9.40
2022-10-09T03:26:26.470Z,9.40
2022-10-09T03:29:12.228Z,9.40
2022-10-09T03:31:57.305Z,9.40
2022-10-09T03:34:42.849Z,9.30
2022-10-09T03:37:28.179Z,9.30
2022-10-09T03:40:13.728Z,9.30
2022-10-09T03:42:59.425Z,9.30
2022-10-09T03:45:44.745Z,9.30
2022-10-09T03:48:30.300Z,9.30
2022-10-09T03:51:15.705Z,9.20
2022-10-09T03:54:00.822Z,9.20
2022-10-09T03:56:46.246Z,9.20
2022-10-09T03:59:31.750Z,9.10
2022-10-09T04:02:17.312Z,9.10
2022-10-09T04:05:06.767Z,9.10
2022-10-09T04:07:52.432Z,9.10
2022-10-09T04:10:38.151Z,9.10
2022-10-09T04:13:23.313Z,9.10
2022-10-09T04:16:12.834Z,9.10
2022-10-09T04:18:58.662Z,9.10
2022-10-09T04:21:43.743Z,9.10
2022-10-09T04:24:29.620Z,9.10
2022-10-09T04:27:14.908Z,9.00
2022-10-09T04:30:00.371Z,9.00
2022-10-09T04:32:48.662Z,8.90
2022-10-09T04:35:34.425Z,8.90
2022-10-09T04:38:21.094Z,8.90
2022-10-09T04:41:07.645Z,8.90
2022-10-09T04:43:56.686Z,8.80
2022-10-09T04:46:42.527Z,8.80
2022-10-09T04:49:28.595Z,8.80
2022-10-09T04:52:13.768Z,8.80
2022-10-09T04:54:59.448Z,8.80
2022-10-09T04:57:45.031Z,8.70
2022-10-09T05:00:30.382Z,8.70
2022-10-09T05:03:15.605Z,8.70
2022-10-09T05:06:02.595Z,8.60
2022-10-09T05:08:50.608Z,8.60
2022-10-09T05:11:42.515Z,8.60
2022-10-09T05:14:28.212Z,8.60
2022-10-09T05:17:14.957Z,8.60
2022-10-09T05:20:00.480Z,8.60
2022-10-09T05:22:47.560Z,8.60
2022-10-09T05:25:33.244Z,8.60
2022-10-09T05:28:18.748Z,8.60
2022-10-09T05:31:08.171Z,8.60
2022-10-09T05:33:55.372Z,8.60
2022-10-09T05:36:41.016Z,8.60
2022-10-09T05:39:26.436Z,8.50
2022-10-09T05:42:11.681Z,8.50
2022-10-09T05:44:57.429Z,8.50
2022-10-09T05:47:42.659Z,8.50
2022-10-09T05:50:28.551Z,8.40
2022-10-09T05:53:14.750Z,8.40
2022-10-09T05:56:16.920Z,8.40
2022-10-09T05:59:08.395Z,8.30
2022-10-09T06:01:54.796Z,8.30
2022-10-09T06:04:40.389Z,8.40
2022-10-09T06:07:26.152Z,8.40
2022-10-09T06:10:11.627Z,8.40
2022-10-09T06:12:56.881Z,8.40
2022-10-09T06:15:52.400Z,8.40
2022-10-09T06:18:38.903Z,8.40
2022-10-09T06:21:26.307Z,8.40
2022-10-09T06:24:28.179Z,8.50
2022-10-09T06:27:14.433Z,8.50
2022-10-09T06:29:59.663Z,8.50
2022-10-09T06:32:46.552Z,8.50
2022-10-09T06:35:34.842Z,8.50
2022-10-09T06:38:20.267Z,8.50
2022-10-09T06:41:10.323Z,8.50
2022-10-09T06:43:58.623Z,8.50
2022-10-09T06:46:45.202Z,8.50
2022-10-09T06:49:30.395Z,8.50
2022-10-09T06:52:15.820Z,8.50
2022-10-09T06:55:01.360Z,8.60
2022-10-09T06:57:46.764Z,8.60
2022-10-09T07:00:33.226Z,8.70
2022-10-09T07:03:19.223Z,8.70
2022-10-09T07:06:15.350Z,8.80
2022-10-09T07:09:03.577Z,8.80
2022-10-09T07:11:49.508Z,8.90
2022-10-09T07:14:35.305Z,9.00
2022-10-09T07:17:20.607Z,9.00
2022-10-09T07:20:06.469Z,9.10
2022-10-09T07:22:52.140Z,9.10
2022-10-09T07:25:43.022Z,9.20
2022-10-09T07:28:30.185Z,9.20
2022-10-09T07:31:16.251Z,9.30
2022-10-09T07:34:02.835Z,9.40
2022-10-09T07:36:47.944Z,9.40
2022-10-09T07:39:34.912Z,9.50
2022-10-09T07:42:20.557Z,9.60
2022-10-09T07:45:06.660Z,9.70
2022-10-09T07:47:52.264Z,9.70
2022-10-09T07:50:40.704Z,9.80
2022-10-09T07:53:31.503Z,9.90
2022-10-09T07:56:26.811Z,10.00
2022-10-09T07:59:14.382Z,10.00
2022-10-09T08:01:59.969Z,10.10
2022-10-09T08:04:45.570Z,10.20
2022-10-09T08:07:34.794Z,10.30
2022-10-09T08:10:20.283Z,10.40
2022-10-09T08:13:05.902Z,10.50
2022-10-09T08:15:51.496Z,10.60
2022-10-09T08:18:37.153Z,10.70
2022-10-09T08:21:22.851Z,10.80
2022-10-09T08:24:13.460Z,10.90
2022-10-09T08:26:58.660Z,11.00
2022-10-09T08:29:46.794Z,11.10
2022-10-09T08:32:31.842Z,11.10
2022-10-09T08:35:17.346Z,11.20
2022-10-09T08:38:03.009Z,11.30
2022-10-09T08:40:58.431Z,11.30
2022-10-09T08:43:45.352Z,11.50
2022-10-09T08:46:40.128Z,11.60
2022-10-09T08:49:43.972Z,11.60
2022-10-09T08:52:51.480Z,11.60
2022-10-09T08:55:43.695Z,11.80
2022-10-09T08:58:35.938Z,11.90
2022-10-09T09:01:48.720Z,11.90
2022-10-09T09:04:54.592Z,12.00
2022-10-09T09:08:02.655Z,12.10
2022-10-09T09:10:50.867Z,12.20
2022-10-09T09:14:01.135Z,12.30
2022-10-09T09:17:07.548Z,12.40
2022-10-09T09:20:19.980Z,12.60
2022-10-09T09:23:12.376Z,12.70
2022-10-09T09:25:59.640Z,12.80
2022-10-09T09:28:48.733Z,12.90
2022-10-09T09:31:37.413Z,13.00
2022-10-09T09:34:36.798Z,13.10
2022-10-09T09:37:23.536Z,13.20
2022-10-09T09:40:36.689Z,13.30
2022-10-09T09:43:24.671Z,13.40
2022-10-09T09:46:30.480Z,13.50
2022-10-09T09:49:23.832Z,13.60
2022-10-09T09:52:09.287Z,13.70
2022-10-09T09:55:07.355Z,13.80
2022-10-09T09:57:58.671Z,13.90
2022-10-09T10:00:58.684Z,14.00
2022-10-09T10:03:50.708Z,14.20
2022-10-09T10:06:43.767Z,14.20
2022-10-09T10:09:29.031Z,14.40
2022-10-09T10:12:22.435Z,14.50
2022-10-09T10:15:17.744Z,14.50
2022-10-09T10:18:12.231Z,14.60
2022-10-09T10:21:04.727Z,14.70
2022-10-09T10:24:03.773Z,14.80
2022-10-09T10:27:05.971Z,15.00
2022-10-09T10:29:56.096Z,15.00
2022-10-09T10:33:02.763Z,15.10
2022-10-09T10:35:52.909Z,15.30
2022-10-09T10:38:54.504Z,15.50
2022-10-09T10:41:47.815Z,15.60
2022-10-09T10:44:43.240Z,15.60
2022-10-09T10:47:32.639Z,15.80
2022-10-09T10:50:20.270Z,16.00
2022-10-09T10:53:39.375Z,16.10
2022-10-09T10:56:30.506Z,16.30
2022-10-09T10:59:39.897Z,16.50
2022-10-09T11:02:33.120Z,16.90
2022-10-09T11:05:34.188Z,17.40
2022-10-09T11:08:28.199Z,17.90
2022-10-09T11:11:29.599Z,18.60
2022-10-09T11:14:48.163Z,19.00
2022-10-09T11:18:00.039Z,19.50
2022-10-09T11:20:57.005Z,20.10
2022-10-09T11:24:26.742Z,21.00
2022-10-09T11:27:31.110Z,22.00
2022-10-09T11:30:20.851Z,23.40
2022-10-09T11:33:45.527Z,24.50
2022-10-09T11:36:41.773Z,25.60
2022-10-09T11:39:31.107Z,26.30
2022-10-09T11:42:22.148Z,27.00
2022-10-09T11:45:27.395Z,27.30
2022-10-09T11:48:22.015Z,27.90
2022-10-09T11:51:23.212Z,28.50
2022-10-09T11:54:15.960Z,29.20
2022-10-09T11:57:06.143Z,29.90
2022-10-09T12:00:06.410Z,30.40
2022-10-09T12:03:03.158Z,30.90
2022-10-09T12:05:50.106Z,31.00
2022-10-09T12:08:36.908Z,31.40
2022-10-09T12:11:23.047Z,31.70
2022-10-09T12:14:08.727Z,32.00
2022-10-09T12:16:54.504Z,32.10
2022-10-09T12:19:42.075Z,32.30
2022-10-09T12:22:31.960Z,32.30
2022-10-09T12:25:30.477Z,32.40
2022-10-09T12:28:33.952Z,33.50
2022-10-09T12:31:38.332Z,34.40
2022-10-09T12:34:38.987Z,34.00
2022-10-09T12:37:34.771Z,34.00
2022-10-09T12:40:33.508Z,34.50
2022-10-09T12:43:25.004Z,35.60
2022-10-09T12:46:10.830Z,36.10
2022-10-09T12:48:57.808Z,36.60
2022-10-09T12:51:57.963Z,37.00
2022-10-09T12:54:44.862Z,36.40
2022-10-09T12:57:30.376Z,35.50
2022-10-09T13:00:18.680Z,35.10
2022-10-09T13:03:04.097Z,34.70
2022-10-09T13:05:50.216Z,34.40
2022-10-09T13:08:38.416Z,34.20
2022-10-09T13:11:38.759Z,33.90
2022-10-09T13:14:33.215Z,34.40
2022-10-09T13:17:40.426Z,34.90
2022-10-09T13:20:35.279Z,34.20
2022-10-09T13:23:33.631Z,35.00
2022-10-09T13:26:30.249Z,35.50
2022-10-09T13:29:15.690Z,36.00
2022-10-09T13:32:02.871Z,35.30
2022-10-09T13:34:48.209Z,34.70
2022-10-09T13:37:33.912Z,34.50
2022-10-09T13:40:21.771Z,34.70
2022-10-09T13:43:07.176Z,35.60
2022-10-09T13:45:53.542Z,35.70
2022-10-09T13:48:39.635Z,35.80
2022-10-09T13:51:24.943Z,35.30
2022-10-09T13:54:20.556Z,35.40
2022-10-09T13:57:06.075Z,36.30
2022-10-09T13:59:51.645Z,36.00
2022-10-09T14:02:37.631Z,35.20
2022-10-09T14:05:23.866Z,35.10
2022-10-09T14:08:09.635Z,35.40
2022-10-09T14:10:55.679Z,36.20
2022-10-09T14:13:40.842Z,36.70
2022-10-09T14:16:28.211Z,37.00
2022-10-09T14:19:13.823Z,37.80
2022-10-09T14:22:02.015Z,38.40
2022-10-09T14:24:47.335Z,38.10
2022-10-09T14:27:32.725Z,37.10
2022-10-09T14:30:18.679Z,37.40
2022-10-09T14:33:04.171Z,37.80
2022-10-09T14:35:52.679Z,37.10
2022-10-09T14:38:42.532Z,36.30
2022-10-09T14:41:35.486Z,36.70
2022-10-09T14:44:22.810Z,37.20
2022-10-09T14:47:08.190Z,36.80
2022-10-09T14:49:53.595Z,37.40
2022-10-09T14:52:39.198Z,37.90
2022-10-09T14:55:24.633Z,38.20
2022-10-09T14:58:10.306Z,38.60
2022-10-09T15:00:55.716Z,39.30
2022-10-09T15:03:41.942Z,40.20
2022-10-09T15:06:28.175Z,40.90
2022-10-09T15:09:13.921Z,41.30
2022-10-09T15:11:59.511Z,41.90
2022-10-09T15:14:44.924Z,42.50
2022-10-09T15:17:30.545Z,42.90
2022-10-09T15:20:16.207Z,43.20
2022-10-09T15:23:01.628Z,43.30
2022-10-09T15:25:51.802Z,43.20
2022-10-09T15:28:42.030Z,43.30
2022-10-09T15:31:45.392Z,43.20
2022-10-09T15:34:30.894Z,42.80
2022-10-09T15:37:16.344Z,42.70
2022-10-09T15:40:01.649Z,42.70
2022-10-09T15:42:47.251Z,42.70
2022-10-09T15:45:35.527Z,42.30
2022-10-09T15:48:25.093Z,42.00
2022-10-09T15:51:14.217Z,41.40
2022-10-09T15:54:01.178Z,40.80
2022-10-09T15:56:47.185Z,40.30
2022-10-09T15:59:36.145Z,39.70
2022-10-09T16:02:21.675Z,39.10
2022-10-09T16:05:07.622Z,38.50
2022-10-09T16:07:53.170Z,37.90
2022-10-09T16:10:48.986Z,37.40
2022-10-09T16:13:37.895Z,36.50
2022-10-09T16:16:25.872Z,36.10
2022-10-09T16:19:11.189Z,35.50
2022-10-09T16:21:59.394Z,35.10
2022-10-09T16:24:45.200Z,34.70
2022-10-09T16:27:30.727Z,34.40
2022-10-09T16:30:16.828Z,34.30
2022-10-09T16:33:01.977Z,34.10
2022-10-09T16:35:47.399Z,33.80
2022-10-09T16:38:33.230Z,33.10
2022-10-09T16:41:20.425Z,31.70
2022-10-09T16:44:13.021Z,30.70
2022-10-09T16:46:58.434Z,29.40
2022-10-09T16:49:44.072Z,27.90
2022-10-09T16:52:29.690Z,26.50
2022-10-09T16:55:15.251Z,25.20
2022-10-09T16:58:00.801Z,24.20
2022-10-09T17:00:46.562Z,23.40
2022-10-09T17:03:32.117Z,22.50
2022-10-09T17:06:23.951Z,21.70
2022-10-09T17:09:13.984Z,21.10
2022-10-09T17:11:59.604Z,20.50
2022-10-09T17:14:46.207Z,20.00
2022-10-09T17:17:31.811Z,19.50
2022-10-09T17:20:17.063Z,19.10
2022-10-09T17:23:03.163Z,18.70
2022-10-09T17:25:48.740Z,18.30
2022-10-09T17:28:34.711Z,18.00
2022-10-09T17:31:24.001Z,17.70
2022-10-09T17:34:11.559Z,17.50
2022-10-09T17:36:57.181Z,17.20
2022-10-09T17:39:49.758Z,17.00
2022-10-09T17:42:39.833Z,16.70
2022-10-09T17:45:25.227Z,16.50
2022-10-09T17:48:10.700Z,16.30
2022-10-09T17:50:57.791Z,16.10
2022-10-09T17:53:44.525Z,15.90
2022-10-09T17:56:31.419Z,15.60
2022-10-09T17:59:16.787Z,15.50
2022-10-09T18:02:02.423Z,15.30
2022-10-09T18:04:50.667Z,15.20
2022-10-09T18:07:36.263Z,15.00
2022-10-09T18:10:21.783Z,14.90
2022-10-09T18:13:08.615Z,14.70
2022-10-09T18:15:54.186Z,14.60
2022-10-09T18:18:43.376Z,14.50
2022-10-09T18:21:28.648Z,14.30
2022-10-09T18:24:16.608Z,14.20
2022-10-09T18:27:01.932Z,14.10
2022-10-09T18:29:47.607Z,14.00
2022-10-09T18:32:33.147Z,13.90
2022-10-09T18:35:18.848Z,13.80
2022-10-09T18:38:05.111Z,13.70
2022-10-09T18:40:50.676Z,13.60
2022-10-09T18:43:36.443Z,13.50
2022-10-09T18:46:25.496Z,13.40
2022-10-09T18:49:13.567Z,13.30
2022-10-09T18:52:02.715Z,13.20
2022-10-09T18:54:52.919Z,13.10
2022-10-09T18:57:42.708Z,13.00
2022-10-09T19:00:28.155Z,12.90
2022-10-09T19:03:13.831Z,12.80
2022-10-09T19:05:59.148Z,12.80
2022-10-09T19:08:45.105Z,12.70
2022-10-09T19:11:37.754Z,12.60
2022-10-09T19:14:23.160Z,12.50
2022-10-09T19:17:09.096Z,12.50
2022-10-09T19:19:54.426Z,12.40
2022-10-09T19:22:46.479Z,12.30
2022-10-09T19:25:31.963Z,12.30
2022-10-09T19:28:19.104Z,12.20
2022-10-09T19:31:09.244Z,12.20
2022-10-09T19:33:54.740Z,12.20
2022-10-09T19:36:40.176Z,12.10
2022-10-09T19:39:25.657Z,12.10
2022-10-09T19:42:11.151Z,12.10
2022-10-09T19:44:56.583Z,12.00
2022-10-09T19:47:42.072Z,12.00
2022-10-09T19:50:27.756Z,11.90
2022-10-09T19:53:14.094Z,11.90
2022-10-09T19:55:59.882Z,11.90
2022-10-09T19:58:47.896Z,11.90
2022-10-09T20:01:35.299Z,11.80
2022-10-09T20:04:20.624Z,11.80
2022-10-09T20:07:12.523Z,11.80
2022-10-09T20:09:58.212Z,11.80
2022-10-09T20:12:43.745Z,11.70
2022-10-09T20:15:32.206Z,11.70
2022-10-09T20:18:18.108Z,11.70
2022-10-09T20:21:03.700Z,11.70
2022-10-09T20:23:49.883Z,11.70
2022-10-09T20:26:37.696Z,11.70
2022-10-09T20:29:27.201Z,11.70
2022-10-09T20:32:12.680Z,11.70
2022-10-09T20:35:02.387Z,11.70
2022-10-09T20:37:47.352Z,11.60
2022-10-09T20:40:33.699Z,11.60
2022-10-09T20:43:19.491Z,11.60
2022-10-09T20:46:09.689Z,11.60
2022-10-09T20:48:55.674Z,11.60
2022-10-09T20:51:42.159Z,11.60
2022-10-09T20:54:30.203Z,11.60
2022-10-09T20:57:15.787Z,11.60
2022-10-09T21:00:01.470Z,11.50
2022-10-09T21:02:49.560Z,11.50
2022-10-09T21:05:41.483Z,11.50
2022-10-09T21:08:26.848Z,11.40
2022-10-09T21:11:16.525Z,11.30
2022-10-09T21:14:02.574Z,11.30
2022-10-09T21:16:50.527Z,11.30
2022-10-09T21:19:35.656Z,11.20
2022-10-09T21:22:24.948Z,11.20
2022-10-09T21:25:10.118Z,11.20
2022-10-09T21:27:55.777Z,11.10
2022-10-09T21:30:41.943Z,11.10
2022-10-09T21:33:27.471Z,11.00
2022-10-09T21:36:25.610Z,11.00
2022-10-09T21:39:11.392Z,11.00
2022-10-09T21:41:57.013Z,10.90
2022-10-09T21:44:42.244Z,10.90
2022-10-09T21:47:27.600Z,10.90
2022-10-09T21:50:13.349Z,10.90
2022-10-09T21:52:59.100Z,10.80
2022-10-09T21:55:45.334Z,10.80
2022-10-09T21:58:31.048Z,10.80
2022-10-09T22:01:17.104Z,10.70
2022-10-09T22:04:02.592Z,10.70
2022-10-09T22:06:47.874Z,10.70
2022-10-09T22:09:33.484Z,10.70
2022-10-09T22:12:18.995Z,10.70
2022-10-09T22:15:05.491Z,10.70
2022-10-09T22:17:50.943Z,10.60
2022-10-09T22:20:48.925Z,10.60
2022-10-09T22:23:34.963Z,10.60
2022-10-09T22:26:21.942Z,10.50
2022-10-09T22:29:07.344Z,10.50
2022-10-09T22:31:53.171Z,10.50
2022-10-09T22:34:38.562Z,10.50
2022-10-09T22:37:23.781Z,10.50
2022-10-09T22:40:09.896Z,10.40
2022-10-09T22:42:55.184Z,10.40
2022-10-09T22:45:40.517Z,10.40
2022-10-09T22:48:26.015Z,10.40
2022-10-09T22:51:13.714Z,10.40
2022-10-09T22:53:59.735Z,10.30
2022-10-09T22:56:46.008Z,10.30
2022-10-09T22:59:32.560Z,10.30
2022-10-09T23:02:18.320Z,10.20
2022-10-09T23:05:04.183Z,10.20
2022-10-09T23:07:49.652Z,10.20
2022-10-09T23:10:39.843Z,10.20
2022-10-09T23:13:25.287Z,10.20
2022-10-09T23:16:13.162Z,10.20
2022-10-09T23:19:05.409Z,10.10
2022-10-09T23:21:51.308Z,10.10
2022-10-09T23:24:36.743Z,10.10
2022-10-09T23:27:22.313Z,10.10
2022-10-09T23:30:08.411Z,10.10
2022-10-09T23:32:53.983Z,10.10
2022-10-09T23:35:47.407Z,10.00
2022-10-09T23:38:33.544Z,10.00
2022-10-09T23:41:22.797Z,10.00
2022-10-09T23:44:09.475Z,10.00
2022-10-09T23:46:57.848Z,10.00
2022-10-09T23:49:43.711Z,10.10
2022-10-09T23:52:28.953Z,10.00
2022-10-09T23:55:14.590Z,9.90
2022-10-09T23:58:01.987Z,10.00
